sensor_id;sensor_type;location;lat;lon;timestamp;temperature;humidity
18456;DHT22;9357;49.900;8.208;2023-04-06T00:00:19;4.60;99.90
18456;DHT22;9357;49.900;8.208;2023-04-06T00:01:52;4.70;99.90
18456;DHT22;9357;49.900;8.208;2023-04-06T00:03:25;4.70;99.90
18456;DHT22;9357;49.900;8.208;2023-04-06T00:04:58;4.70;99.90
18456;DHT22;9357;49.900;8.208;2023-04-06T00:06:30;4.80;99.90
18456;DHT22;9357;49.900;8.208;2023-04-06T00:08:03;4.80;99.90
18456;DHT22;9357;49.900;8.208;2023-04-06T00:09:36;4.80;99.90
18456;DHT22;9357;49.900;8.208;2023-04-06T00:11:09;4.80;99.90
18456;DHT22;9357;49.900;8.208;2023-04-06T00:12:42;4.70;99.90
18456;DHT22;9357;49.900;8.208;2023-04-06T00:14:15;4.70;99.90
18456;DHT22;9357;49.900;8.208;2023-04-06T00:15:48;4.70;99.90
18456;DHT22;9357;49.900;8.208;2023-04-06T00:17:21;4.70;99.90
18456;DHT22;9357;49.900;8.208;2023-04-06T00:18:53;4.70;99.90
18456;DHT22;9357;49.900;8.208;2023-04-06T00:20:27;4.70;99.90
18456;DHT22;9357;49.900;8.208;2023-04-06T00:22:00;4.60;99.90
18456;DHT22;9357;49.900;8.208;2023-04-06T00:23:33;4.60;99.90
18456;DHT22;9357;49.900;8.208;2023-04-06T00:25:07;4.60;99.90
18456;DHT22;9357;49.900;8.208;2023-04-06T00:26:40;4.60;99.90
18456;DHT22;9357;49.900;8.208;2023-04-06T00:28:13;4.60;99.90
18456;DHT22;9357;49.900;8.208;2023-04-06T00:29:46;4.50;99.90
18456;DHT22;9357;49.900;8.208;2023-04-06T00:31:17;4.50;99.90
18456;DHT22;9357;49.900;8.208;2023-04-06T00:32:50;4.50;99.90
18456;DHT22;9357;49.900;8.208;2023-04-06T00:34:23;4.40;99.90
18456;DHT22;9357;49.900;8.208;2023-04-06T00:35:55;4.40;99.90
18456;DHT22;9357;49.900;8.208;2023-04-06T00:37:28;4.40;99.90
18456;DHT22;9357;49.900;8.208;2023-04-06T00:38:59;4.30;99.90
18456;DHT22;9357;49.900;8.208;2023-04-06T00:40:32;4.30;99.90
18456;DHT22;9357;49.900;8.208;2023-04-06T00:42:11;4.20;99.90
18456;DHT22;9357;49.900;8.208;2023-04-06T00:43:44;4.10;99.90
18456;DHT22;9357;49.900;8.208;2023-04-06T00:45:16;4.00;99.90
18456;DHT22;9357;49.900;8.208;2023-04-06T00:46:49;4.00;99.90
18456;DHT22;9357;49.900;8.208;2023-04-06T00:48:21;3.90;99.90
18456;DHT22;9357;49.900;8.208;2023-04-06T00:49:54;3.90;99.90
18456;DHT22;9357;49.900;8.208;2023-04-06T00:51:26;3.90;99.90
18456;DHT22;9357;49.900;8.208;2023-04-06T00:52:59;3.90;99.90
18456;DHT22;9357;49.900;8.208;2023-04-06T00:54:32;3.90;99.90
18456;DHT22;9357;49.900;8.208;2023-04-06T00:56:05;3.90;99.90
18456;DHT22;9357;49.900;8.208;2023-04-06T00:57:38;3.90;99.90
18456;DHT22;9357;49.900;8.208;2023-04-06T00:59:11;3.90;99.90
18456;DHT22;9357;49.900;8.208;2023-04-06T01:00:44;3.90;99.90
18456;DHT22;9357;49.900;8.208;2023-04-06T01:02:17;3.90;99.90
18456;DHT22;9357;49.900;8.208;2023-04-06T01:03:50;3.90;99.90
18456;DHT22;9357;49.900;8.208;2023-04-06T01:05:22;3.90;99.90
18456;DHT22;9357;49.900;8.208;2023-04-06T01:06:55;3.90;99.90
18456;DHT22;9357;49.900;8.208;2023-04-06T01:08:27;3.90;99.90
18456;DHT22;9357;49.900;8.208;2023-04-06T01:10:00;3.80;99.90
18456;DHT22;9357;49.900;8.208;2023-04-06T01:11:32;3.80;99.90
18456;DHT22;9357;49.900;8.208;2023-04-06T01:13:06;3.80;99.90
18456;DHT22;9357;49.900;8.208;2023-04-06T01:14:39;3.80;99.90
18456;DHT22;9357;49.900;8.208;2023-04-06T01:16:12;3.90;99.90
18456;DHT22;9357;49.900;8.208;2023-04-06T01:17:44;3.90;99.90
18456;DHT22;9357;49.900;8.208;2023-04-06T01:19:17;3.90;99.90
18456;DHT22;9357;49.900;8.208;2023-04-06T01:20:49;3.80;99.90
18456;DHT22;9357;49.900;8.208;2023-04-06T01:22:24;3.80;99.90
18456;DHT22;9357;49.900;8.208;2023-04-06T01:23:56;3.70;99.90
18456;DHT22;9357;49.900;8.208;2023-04-06T01:25:28;3.70;99.90
18456;DHT22;9357;49.900;8.208;2023-04-06T01:27:01;3.70;99.90
18456;DHT22;9357;49.900;8.208;2023-04-06T01:28:34;3.70;99.90
18456;DHT22;9357;49.900;8.208;2023-04-06T01:30:09;3.60;99.90
18456;DHT22;9357;49.900;8.208;2023-04-06T01:31:41;3.50;99.90
18456;DHT22;9357;49.900;8.208;2023-04-06T01:33:13;3.50;99.90
18456;DHT22;9357;49.900;8.208;2023-04-06T01:34:46;3.50;99.90
18456;DHT22;9357;49.900;8.208;2023-04-06T01:36:19;3.50;99.90
18456;DHT22;9357;49.900;8.208;2023-04-06T01:37:53;3.50;99.90
18456;DHT22;9357;49.900;8.208;2023-04-06T01:39:26;3.50;99.90
18456;DHT22;9357;49.900;8.208;2023-04-06T01:40:57;3.50;99.90
18456;DHT22;9357;49.900;8.208;2023-04-06T01:42:30;3.50;99.90
18456;DHT22;9357;49.900;8.208;2023-04-06T01:44:02;3.50;99.90
18456;DHT22;9357;49.900;8.208;2023-04-06T01:45:35;3.50;99.90
18456;DHT22;9357;49.900;8.208;2023-04-06T01:47:07;3.50;99.90
18456;DHT22;9357;49.900;8.208;2023-04-06T01:48:39;3.50;99.90
18456;DHT22;9357;49.900;8.208;2023-04-06T01:50:12;3.50;99.90
18456;DHT22;9357;49.900;8.208;2023-04-06T01:51:44;3.50;99.90
18456;DHT22;9357;49.900;8.208;2023-04-06T01:53:18;3.50;99.90
18456;DHT22;9357;49.900;8.208;2023-04-06T01:54:49;3.50;99.90
18456;DHT22;9357;49.900;8.208;2023-04-06T01:56:22;3.50;99.90
18456;DHT22;9357;49.900;8.208;2023-04-06T01:57:55;3.50;99.90
18456;DHT22;9357;49.900;8.208;2023-04-06T01:59:27;3.50;99.90
18456;DHT22;9357;49.900;8.208;2023-04-06T02:00:59;3.50;99.90
18456;DHT22;9357;49.900;8.208;2023-04-06T02:02:31;3.50;99.90
18456;DHT22;9357;49.900;8.208;2023-04-06T02:04:04;3.50;99.90
18456;DHT22;9357;49.900;8.208;2023-04-06T02:05:37;3.50;99.90
18456;DHT22;9357;49.900;8.208;2023-04-06T02:07:10;3.50;99.90
18456;DHT22;9357;49.900;8.208;2023-04-06T02:08:44;3.50;99.90
18456;DHT22;9357;49.900;8.208;2023-04-06T02:10:15;3.50;99.90
18456;DHT22;9357;49.900;8.208;2023-04-06T02:11:48;3.40;99.90
18456;DHT22;9357;49.900;8.208;2023-04-06T02:13:20;3.40;99.90
18456;DHT22;9357;49.900;8.208;2023-04-06T02:14:53;3.40;99.90
18456;DHT22;9357;49.900;8.208;2023-04-06T02:16:24;3.40;99.90
18456;DHT22;9357;49.900;8.208;2023-04-06T02:17:58;3.30;99.90
18456;DHT22;9357;49.900;8.208;2023-04-06T02:19:32;3.30;99.90
18456;DHT22;9357;49.900;8.208;2023-04-06T02:21:04;3.30;99.90
18456;DHT22;9357;49.900;8.208;2023-04-06T02:22:38;3.30;99.90
18456;DHT22;9357;49.900;8.208;2023-04-06T02:24:12;3.30;99.90
18456;DHT22;9357;49.900;8.208;2023-04-06T02:25:45;3.30;99.90
18456;DHT22;9357;49.900;8.208;2023-04-06T02:27:17;3.30;99.90
18456;DHT22;9357;49.900;8.208;2023-04-06T02:28:50;3.30;99.90
18456;DHT22;9357;49.900;8.208;2023-04-06T02:30:22;3.30;99.90
18456;DHT22;9357;49.900;8.208;2023-04-06T02:31:55;3.30;99.90
18456;DHT22;9357;49.900;8.208;2023-04-06T02:33:28;3.30;99.90
18456;DHT22;9357;49.900;8.208;2023-04-06T02:34:59;3.20;99.90
18456;DHT22;9357;49.900;8.208;2023-04-06T02:36:32;3.20;99.90
18456;DHT22;9357;49.900;8.208;2023-04-06T02:38:05;3.20;99.90
18456;DHT22;9357;49.900;8.208;2023-04-06T02:39:39;3.10;99.90
18456;DHT22;9357;49.900;8.208;2023-04-06T02:41:12;3.10;99.90
18456;DHT22;9357;49.900;8.208;2023-04-06T02:42:44;3.00;99.90
18456;DHT22;9357;49.900;8.208;2023-04-06T02:44:18;3.00;99.90
18456;DHT22;9357;49.900;8.208;2023-04-06T02:45:49;3.00;99.90
18456;DHT22;9357;49.900;8.208;2023-04-06T02:47:22;3.00;99.90
18456;DHT22;9357;49.900;8.208;2023-04-06T02:48:54;3.00;99.90
18456;DHT22;9357;49.900;8.208;2023-04-06T02:50:27;3.00;99.90
18456;DHT22;9357;49.900;8.208;2023-04-06T02:52:00;3.00;99.90
18456;DHT22;9357;49.900;8.208;2023-04-06T02:53:32;3.00;99.90
18456;DHT22;9357;49.900;8.208;2023-04-06T02:55:07;3.00;99.90
18456;DHT22;9357;49.900;8.208;2023-04-06T02:56:39;3.00;99.90
18456;DHT22;9357;49.900;8.208;2023-04-06T02:58:12;3.00;99.90
18456;DHT22;9357;49.900;8.208;2023-04-06T02:59:44;3.00;99.90
18456;DHT22;9357;49.900;8.208;2023-04-06T03:01:17;2.90;99.90
18456;DHT22;9357;49.900;8.208;2023-04-06T03:02:50;2.90;99.90
18456;DHT22;9357;49.900;8.208;2023-04-06T03:04:22;2.90;99.90
18456;DHT22;9357;49.900;8.208;2023-04-06T03:05:57;2.90;99.90
18456;DHT22;9357;49.900;8.208;2023-04-06T03:07:30;2.90;99.90
18456;DHT22;9357;49.900;8.208;2023-04-06T03:09:02;2.90;99.90
18456;DHT22;9357;49.900;8.208;2023-04-06T03:10:36;2.90;99.90
18456;DHT22;9357;49.900;8.208;2023-04-06T03:12:08;2.90;99.90
18456;DHT22;9357;49.900;8.208;2023-04-06T03:13:41;2.80;99.90
18456;DHT22;9357;49.900;8.208;2023-04-06T03:15:13;2.80;99.90
18456;DHT22;9357;49.900;8.208;2023-04-06T03:16:46;2.80;99.90
18456;DHT22;9357;49.900;8.208;2023-04-06T03:18:21;2.80;99.90
18456;DHT22;9357;49.900;8.208;2023-04-06T03:19:53;2.80;99.90
18456;DHT22;9357;49.900;8.208;2023-04-06T03:21:26;2.80;99.90
18456;DHT22;9357;49.900;8.208;2023-04-06T03:22:59;2.80;99.90
18456;DHT22;9357;49.900;8.208;2023-04-06T03:24:31;2.80;99.90
18456;DHT22;9357;49.900;8.208;2023-04-06T03:26:05;2.80;99.90
18456;DHT22;9357;49.900;8.208;2023-04-06T03:27:37;2.70;99.90
18456;DHT22;9357;49.900;8.208;2023-04-06T03:29:10;2.70;99.90
18456;DHT22;9357;49.900;8.208;2023-04-06T03:30:42;2.70;99.90
18456;DHT22;9357;49.900;8.208;2023-04-06T03:32:14;2.70;99.90
18456;DHT22;9357;49.900;8.208;2023-04-06T03:33:47;2.70;99.90
18456;DHT22;9357;49.900;8.208;2023-04-06T03:35:20;2.70;99.90
18456;DHT22;9357;49.900;8.208;2023-04-06T03:36:53;2.60;99.90
18456;DHT22;9357;49.900;8.208;2023-04-06T03:38:40;2.70;99.90
18456;DHT22;9357;49.900;8.208;2023-04-06T03:40:13;2.60;99.90
18456;DHT22;9357;49.900;8.208;2023-04-06T03:41:47;2.60;99.90
18456;DHT22;9357;49.900;8.208;2023-04-06T03:43:20;2.60;99.90
18456;DHT22;9357;49.900;8.208;2023-04-06T03:44:52;2.60;99.90
18456;DHT22;9357;49.900;8.208;2023-04-06T03:46:25;2.50;99.90
18456;DHT22;9357;49.900;8.208;2023-04-06T03:47:57;2.50;99.90
18456;DHT22;9357;49.900;8.208;2023-04-06T03:49:30;2.50;99.90
18456;DHT22;9357;49.900;8.208;2023-04-06T03:51:03;2.40;99.90
18456;DHT22;9357;49.900;8.208;2023-04-06T03:52:36;2.40;99.90
18456;DHT22;9357;49.900;8.208;2023-04-06T03:54:09;2.40;99.90
18456;DHT22;9357;49.900;8.208;2023-04-06T03:55:41;2.40;99.90
18456;DHT22;9357;49.900;8.208;2023-04-06T03:57:15;2.40;99.90
18456;DHT22;9357;49.900;8.208;2023-04-06T03:58:47;2.40;99.90
18456;DHT22;9357;49.900;8.208;2023-04-06T04:00:22;2.40;99.90
18456;DHT22;9357;49.900;8.208;2023-04-06T04:01:55;2.40;99.90
18456;DHT22;9357;49.900;8.208;2023-04-06T04:03:28;2.30;99.90
18456;DHT22;9357;49.900;8.208;2023-04-06T04:05:00;2.40;99.90
18456;DHT22;9357;49.900;8.208;2023-04-06T04:06:32;2.40;99.90
18456;DHT22;9357;49.900;8.208;2023-04-06T04:08:07;2.40;99.90
18456;DHT22;9357;49.900;8.208;2023-04-06T04:09:40;2.40;99.90
18456;DHT22;9357;49.900;8.208;2023-04-06T04:11:13;2.40;99.90
18456;DHT22;9357;49.900;8.208;2023-04-06T04:12:47;2.50;99.90
18456;DHT22;9357;49.900;8.208;2023-04-06T04:14:20;2.40;99.90
18456;DHT22;9357;49.900;8.208;2023-04-06T04:15:53;2.40;99.90
18456;DHT22;9357;49.900;8.208;2023-04-06T04:17:26;2.40;99.90
18456;DHT22;9357;49.900;8.208;2023-04-06T04:18:59;2.40;99.90
18456;DHT22;9357;49.900;8.208;2023-04-06T04:20:31;2.40;99.90
18456;DHT22;9357;49.900;8.208;2023-04-06T04:22:03;2.50;99.90
18456;DHT22;9357;49.900;8.208;2023-04-06T04:23:38;2.50;99.90
18456;DHT22;9357;49.900;8.208;2023-04-06T04:25:10;2.50;99.90
18456;DHT22;9357;49.900;8.208;2023-04-06T04:26:42;2.50;99.90
18456;DHT22;9357;49.900;8.208;2023-04-06T04:28:17;2.50;99.90
18456;DHT22;9357;49.900;8.208;2023-04-06T04:29:49;2.50;99.90
18456;DHT22;9357;49.900;8.208;2023-04-06T04:31:23;2.50;99.90
18456;DHT22;9357;49.900;8.208;2023-04-06T04:32:56;2.50;99.90
18456;DHT22;9357;49.900;8.208;2023-04-06T04:34:29;2.40;99.90
18456;DHT22;9357;49.900;8.208;2023-04-06T04:36:03;2.40;99.90
18456;DHT22;9357;49.900;8.208;2023-04-06T04:37:36;2.40;99.90
18456;DHT22;9357;49.900;8.208;2023-04-06T04:39:07;2.30;99.90
18456;DHT22;9357;49.900;8.208;2023-04-06T04:40:41;2.30;99.90
18456;DHT22;9357;49.900;8.208;2023-04-06T04:42:13;2.30;99.90
18456;DHT22;9357;49.900;8.208;2023-04-06T04:43:48;2.30;99.90
18456;DHT22;9357;49.900;8.208;2023-04-06T04:45:21;2.30;99.90
18456;DHT22;9357;49.900;8.208;2023-04-06T04:46:54;2.20;99.90
18456;DHT22;9357;49.900;8.208;2023-04-06T04:48:26;2.30;99.90
18456;DHT22;9357;49.900;8.208;2023-04-06T04:49:59;2.20;99.90
18456;DHT22;9357;49.900;8.208;2023-04-06T04:51:32;2.20;99.90
18456;DHT22;9357;49.900;8.208;2023-04-06T04:53:05;2.20;99.90
18456;DHT22;9357;49.900;8.208;2023-04-06T04:54:38;2.20;99.90
18456;DHT22;9357;49.900;8.208;2023-04-06T04:56:11;2.20;99.90
18456;DHT22;9357;49.900;8.208;2023-04-06T04:57:44;2.20;99.90
18456;DHT22;9357;49.900;8.208;2023-04-06T04:59:18;2.20;99.90
18456;DHT22;9357;49.900;8.208;2023-04-06T05:00:51;2.20;99.90
18456;DHT22;9357;49.900;8.208;2023-04-06T05:02:24;2.20;99.90
18456;DHT22;9357;49.900;8.208;2023-04-06T05:03:57;2.10;99.90
18456;DHT22;9357;49.900;8.208;2023-04-06T05:05:29;2.10;99.90
18456;DHT22;9357;49.900;8.208;2023-04-06T05:07:04;2.10;99.90
18456;DHT22;9357;49.900;8.208;2023-04-06T05:08:36;2.10;99.90
18456;DHT22;9357;49.900;8.208;2023-04-06T05:10:09;2.20;99.90
18456;DHT22;9357;49.900;8.208;2023-04-06T05:11:42;2.20;99.90
18456;DHT22;9357;49.900;8.208;2023-04-06T05:13:14;2.20;99.90
18456;DHT22;9357;49.900;8.208;2023-04-06T05:14:48;2.20;99.90
18456;DHT22;9357;49.900;8.208;2023-04-06T05:16:20;2.20;99.90
18456;DHT22;9357;49.900;8.208;2023-04-06T05:17:53;2.20;99.90
18456;DHT22;9357;49.900;8.208;2023-04-06T05:19:26;2.20;99.90
18456;DHT22;9357;49.900;8.208;2023-04-06T05:20:59;2.20;99.90
18456;DHT22;9357;49.900;8.208;2023-04-06T05:22:31;2.20;99.90
18456;DHT22;9357;49.900;8.208;2023-04-06T05:24:04;2.20;99.90
18456;DHT22;9357;49.900;8.208;2023-04-06T05:25:37;2.20;99.90
18456;DHT22;9357;49.900;8.208;2023-04-06T05:27:10;2.20;99.90
18456;DHT22;9357;49.900;8.208;2023-04-06T05:28:42;2.20;99.90
18456;DHT22;9357;49.900;8.208;2023-04-06T05:30:17;2.20;99.90
18456;DHT22;9357;49.900;8.208;2023-04-06T05:31:50;2.20;99.90
18456;DHT22;9357;49.900;8.208;2023-04-06T05:33:23;2.30;99.90
18456;DHT22;9357;49.900;8.208;2023-04-06T05:34:56;2.30;99.90
18456;DHT22;9357;49.900;8.208;2023-04-06T05:36:29;2.20;99.90
18456;DHT22;9357;49.900;8.208;2023-04-06T05:38:07;2.30;99.90
18456;DHT22;9357;49.900;8.208;2023-04-06T05:39:40;2.30;99.90
18456;DHT22;9357;49.900;8.208;2023-04-06T05:41:13;2.30;99.90
18456;DHT22;9357;49.900;8.208;2023-04-06T05:42:46;2.30;99.90
18456;DHT22;9357;49.900;8.208;2023-04-06T05:44:18;2.30;99.90
18456;DHT22;9357;49.900;8.208;2023-04-06T05:45:52;2.30;99.90
18456;DHT22;9357;49.900;8.208;2023-04-06T05:47:25;2.30;99.90
18456;DHT22;9357;49.900;8.208;2023-04-06T05:48:58;2.30;99.90
18456;DHT22;9357;49.900;8.208;2023-04-06T05:50:31;2.30;99.90
18456;DHT22;9357;49.900;8.208;2023-04-06T05:52:04;2.30;99.90
18456;DHT22;9357;49.900;8.208;2023-04-06T05:53:37;2.30;99.90
18456;DHT22;9357;49.900;8.208;2023-04-06T05:55:10;2.30;99.90
18456;DHT22;9357;49.900;8.208;2023-04-06T05:56:43;2.30;99.90
18456;DHT22;9357;49.900;8.208;2023-04-06T05:58:16;2.30;99.90
18456;DHT22;9357;49.900;8.208;2023-04-06T05:59:49;2.30;99.90
18456;DHT22;9357;49.900;8.208;2023-04-06T06:01:23;2.40;99.90
18456;DHT22;9357;49.900;8.208;2023-04-06T06:02:56;2.40;99.90
18456;DHT22;9357;49.900;8.208;2023-04-06T06:04:30;2.40;99.90
18456;DHT22;9357;49.900;8.208;2023-04-06T06:06:04;2.40;99.90
18456;DHT22;9357;49.900;8.208;2023-04-06T06:07:37;2.40;99.90
18456;DHT22;9357;49.900;8.208;2023-04-06T06:09:09;2.50;99.90
18456;DHT22;9357;49.900;8.208;2023-04-06T06:10:42;2.40;99.90
18456;DHT22;9357;49.900;8.208;2023-04-06T06:12:15;2.50;99.90
18456;DHT22;9357;49.900;8.208;2023-04-06T06:13:48;2.50;99.90
18456;DHT22;9357;49.900;8.208;2023-04-06T06:15:20;2.50;99.90
18456;DHT22;9357;49.900;8.208;2023-04-06T06:16:55;2.50;99.90
18456;DHT22;9357;49.900;8.208;2023-04-06T06:18:27;2.50;99.90
18456;DHT22;9357;49.900;8.208;2023-04-06T06:20:00;2.60;99.90
18456;DHT22;9357;49.900;8.208;2023-04-06T06:21:33;2.60;99.90
18456;DHT22;9357;49.900;8.208;2023-04-06T06:23:06;2.60;99.90
18456;DHT22;9357;49.900;8.208;2023-04-06T06:24:39;2.70;99.90
18456;DHT22;9357;49.900;8.208;2023-04-06T06:26:11;2.70;99.90
18456;DHT22;9357;49.900;8.208;2023-04-06T06:27:44;2.80;99.90
18456;DHT22;9357;49.900;8.208;2023-04-06T06:29:17;2.80;99.90
18456;DHT22;9357;49.900;8.208;2023-04-06T06:30:49;2.80;99.90
18456;DHT22;9357;49.900;8.208;2023-04-06T06:32:23;2.90;99.90
18456;DHT22;9357;49.900;8.208;2023-04-06T06:33:56;2.90;99.90
18456;DHT22;9357;49.900;8.208;2023-04-06T06:35:29;2.90;99.90
18456;DHT22;9357;49.900;8.208;2023-04-06T06:37:02;2.90;99.90
18456;DHT22;9357;49.900;8.208;2023-04-06T06:38:35;2.90;99.90
18456;DHT22;9357;49.900;8.208;2023-04-06T06:40:09;2.90;99.90
18456;DHT22;9357;49.900;8.208;2023-04-06T06:41:44;2.90;99.90
18456;DHT22;9357;49.900;8.208;2023-04-06T06:43:17;3.00;99.90
18456;DHT22;9357;49.900;8.208;2023-04-06T06:44:50;3.00;99.90
18456;DHT22;9357;49.900;8.208;2023-04-06T06:46:23;3.00;99.90
18456;DHT22;9357;49.900;8.208;2023-04-06T06:47:57;3.00;99.90
18456;DHT22;9357;49.900;8.208;2023-04-06T06:49:30;3.10;99.90
18456;DHT22;9357;49.900;8.208;2023-04-06T06:51:03;3.10;99.90
18456;DHT22;9357;49.900;8.208;2023-04-06T06:52:36;3.10;99.90
18456;DHT22;9357;49.900;8.208;2023-04-06T06:54:09;3.10;99.90
18456;DHT22;9357;49.900;8.208;2023-04-06T06:55:42;3.10;99.90
18456;DHT22;9357;49.900;8.208;2023-04-06T06:57:16;3.20;99.90
18456;DHT22;9357;49.900;8.208;2023-04-06T06:58:49;3.20;99.90
18456;DHT22;9357;49.900;8.208;2023-04-06T07:00:22;3.30;99.90
18456;DHT22;9357;49.900;8.208;2023-04-06T07:01:55;3.30;99.90
18456;DHT22;9357;49.900;8.208;2023-04-06T07:03:29;3.30;99.90
18456;DHT22;9357;49.900;8.208;2023-04-06T07:05:02;3.30;99.90
18456;DHT22;9357;49.900;8.208;2023-04-06T07:06:55;3.40;99.90
18456;DHT22;9357;49.900;8.208;2023-04-06T07:08:28;3.40;99.90
18456;DHT22;9357;49.900;8.208;2023-04-06T07:10:01;3.40;99.90
18456;DHT22;9357;49.900;8.208;2023-04-06T07:11:33;3.50;99.90
18456;DHT22;9357;49.900;8.208;2023-04-06T07:13:06;3.50;99.90
18456;DHT22;9357;49.900;8.208;2023-04-06T07:14:39;3.60;99.90
18456;DHT22;9357;49.900;8.208;2023-04-06T07:16:12;3.60;99.90
18456;DHT22;9357;49.900;8.208;2023-04-06T07:17:45;3.60;99.90
18456;DHT22;9357;49.900;8.208;2023-04-06T07:19:19;3.70;99.90
18456;DHT22;9357;49.900;8.208;2023-04-06T07:20:52;3.80;99.90
18456;DHT22;9357;49.900;8.208;2023-04-06T07:22:25;3.80;99.90
18456;DHT22;9357;49.900;8.208;2023-04-06T07:23:57;3.90;99.90
18456;DHT22;9357;49.900;8.208;2023-04-06T07:25:30;3.90;99.90
18456;DHT22;9357;49.900;8.208;2023-04-06T07:27:03;4.00;99.90
18456;DHT22;9357;49.900;8.208;2023-04-06T07:28:36;4.00;99.90
18456;DHT22;9357;49.900;8.208;2023-04-06T07:30:09;4.00;99.90
18456;DHT22;9357;49.900;8.208;2023-04-06T07:31:42;4.00;99.90
18456;DHT22;9357;49.900;8.208;2023-04-06T07:33:15;4.10;99.90
18456;DHT22;9357;49.900;8.208;2023-04-06T07:34:49;4.10;99.90
18456;DHT22;9357;49.900;8.208;2023-04-06T07:36:22;4.20;99.90
18456;DHT22;9357;49.900;8.208;2023-04-06T07:37:54;4.20;99.90
18456;DHT22;9357;49.900;8.208;2023-04-06T07:39:28;4.20;99.90
18456;DHT22;9357;49.900;8.208;2023-04-06T07:41:01;4.30;99.90
18456;DHT22;9357;49.900;8.208;2023-04-06T07:42:35;4.30;99.90
18456;DHT22;9357;49.900;8.208;2023-04-06T07:44:08;4.40;99.90
18456;DHT22;9357;49.900;8.208;2023-04-06T07:45:41;4.40;99.90
18456;DHT22;9357;49.900;8.208;2023-04-06T07:47:14;4.50;99.90
18456;DHT22;9357;49.900;8.208;2023-04-06T07:48:46;4.60;99.90
18456;DHT22;9357;49.900;8.208;2023-04-06T07:50:21;4.70;99.90
18456;DHT22;9357;49.900;8.208;2023-04-06T07:51:53;4.80;99.90
18456;DHT22;9357;49.900;8.208;2023-04-06T07:53:26;4.90;99.90
18456;DHT22;9357;49.900;8.208;2023-04-06T07:54:59;5.10;99.90
18456;DHT22;9357;49.900;8.208;2023-04-06T07:56:32;5.30;99.90
18456;DHT22;9357;49.900;8.208;2023-04-06T07:58:05;5.60;99.90
18456;DHT22;9357;49.900;8.208;2023-04-06T07:59:38;6.00;99.90
18456;DHT22;9357;49.900;8.208;2023-04-06T08:01:11;6.40;99.90
18456;DHT22;9357;49.900;8.208;2023-04-06T08:02:43;6.80;99.90
18456;DHT22;9357;49.900;8.208;2023-04-06T08:04:16;7.30;99.90
18456;DHT22;9357;49.900;8.208;2023-04-06T08:05:50;7.70;99.90
18456;DHT22;9357;49.900;8.208;2023-04-06T08:07:23;8.10;99.90
18456;DHT22;9357;49.900;8.208;2023-04-06T08:08:56;8.50;99.90
18456;DHT22;9357;49.900;8.208;2023-04-06T08:10:29;8.90;99.90
18456;DHT22;9357;49.900;8.208;2023-04-06T08:12:01;9.30;99.90
18456;DHT22;9357;49.900;8.208;2023-04-06T08:13:34;9.60;99.90
18456;DHT22;9357;49.900;8.208;2023-04-06T08:15:07;10.00;99.90
18456;DHT22;9357;49.900;8.208;2023-04-06T08:16:40;10.40;99.90
18456;DHT22;9357;49.900;8.208;2023-04-06T08:18:13;10.70;99.90
18456;DHT22;9357;49.900;8.208;2023-04-06T08:19:46;11.10;99.90
18456;DHT22;9357;49.900;8.208;2023-04-06T08:21:20;11.40;99.90
18456;DHT22;9357;49.900;8.208;2023-04-06T08:22:52;11.70;99.90
18456;DHT22;9357;49.900;8.208;2023-04-06T08:24:25;12.00;99.90
18456;DHT22;9357;49.900;8.208;2023-04-06T08:25:58;12.30;99.90
18456;DHT22;9357;49.900;8.208;2023-04-06T08:27:31;12.60;99.90
18456;DHT22;9357;49.900;8.208;2023-04-06T08:29:03;12.90;99.90
18456;DHT22;9357;49.900;8.208;2023-04-06T08:30:39;13.10;99.90
18456;DHT22;9357;49.900;8.208;2023-04-06T08:32:12;13.30;99.90
18456;DHT22;9357;49.900;8.208;2023-04-06T08:33:45;13.50;99.90
18456;DHT22;9357;49.900;8.208;2023-04-06T08:35:18;13.70;99.90
18456;DHT22;9357;49.900;8.208;2023-04-06T08:36:52;13.90;99.90
18456;DHT22;9357;49.900;8.208;2023-04-06T08:38:25;14.10;99.90
18456;DHT22;9357;49.900;8.208;2023-04-06T08:39:58;14.30;99.90
18456;DHT22;9357;49.900;8.208;2023-04-06T08:41:30;14.40;99.90
18456;DHT22;9357;49.900;8.208;2023-04-06T08:43:06;14.50;99.90
18456;DHT22;9357;49.900;8.208;2023-04-06T08:44:41;14.70;99.90
18456;DHT22;9357;49.900;8.208;2023-04-06T08:46:14;14.90;99.90
18456;DHT22;9357;49.900;8.208;2023-04-06T08:47:48;15.00;99.90
18456;DHT22;9357;49.900;8.208;2023-04-06T08:49:22;15.10;99.90
18456;DHT22;9357;49.900;8.208;2023-04-06T08:50:55;15.20;99.90
18456;DHT22;9357;49.900;8.208;2023-04-06T08:52:31;15.30;99.90
18456;DHT22;9357;49.900;8.208;2023-04-06T08:54:04;15.40;99.90
18456;DHT22;9357;49.900;8.208;2023-04-06T08:55:38;15.50;99.90
18456;DHT22;9357;49.900;8.208;2023-04-06T08:57:11;15.50;99.90
18456;DHT22;9357;49.900;8.208;2023-04-06T08:58:45;15.60;99.90
18456;DHT22;9357;49.900;8.208;2023-04-06T09:00:18;15.70;99.90
18456;DHT22;9357;49.900;8.208;2023-04-06T09:01:51;15.70;99.90
18456;DHT22;9357;49.900;8.208;2023-04-06T09:03:26;15.80;99.90
18456;DHT22;9357;49.900;8.208;2023-04-06T09:05:00;15.90;99.90
18456;DHT22;9357;49.900;8.208;2023-04-06T09:06:33;16.00;99.90
18456;DHT22;9357;49.900;8.208;2023-04-06T09:08:09;16.00;99.90
18456;DHT22;9357;49.900;8.208;2023-04-06T09:09:42;16.10;99.90
18456;DHT22;9357;49.900;8.208;2023-04-06T09:11:19;16.10;99.90
18456;DHT22;9357;49.900;8.208;2023-04-06T09:13:02;16.10;99.90
18456;DHT22;9357;49.900;8.208;2023-04-06T09:14:35;16.10;99.90
18456;DHT22;9357;49.900;8.208;2023-04-06T09:16:09;16.00;99.90
18456;DHT22;9357;49.900;8.208;2023-04-06T09:17:43;16.10;99.90
18456;DHT22;9357;49.900;8.208;2023-04-06T09:19:17;16.10;99.90
18456;DHT22;9357;49.900;8.208;2023-04-06T09:20:57;16.10;99.90
18456;DHT22;9357;49.900;8.208;2023-04-06T09:22:35;16.10;99.90
18456;DHT22;9357;49.900;8.208;2023-04-06T09:24:10;16.00;99.90
18456;DHT22;9357;49.900;8.208;2023-04-06T09:25:42;16.00;99.90
18456;DHT22;9357;49.900;8.208;2023-04-06T09:27:16;16.10;99.90
18456;DHT22;9357;49.900;8.208;2023-04-06T09:28:50;16.10;99.90
18456;DHT22;9357;49.900;8.208;2023-04-06T09:30:23;16.10;99.90
18456;DHT22;9357;49.900;8.208;2023-04-06T09:32:02;16.20;99.90
18456;DHT22;9357;49.900;8.208;2023-04-06T09:33:37;16.30;99.90
18456;DHT22;9357;49.900;8.208;2023-04-06T09:35:11;16.40;99.90
18456;DHT22;9357;49.900;8.208;2023-04-06T09:36:44;16.40;99.90
18456;DHT22;9357;49.900;8.208;2023-04-06T09:38:16;16.50;99.90
18456;DHT22;9357;49.900;8.208;2023-04-06T09:39:50;16.50;99.90
18456;DHT22;9357;49.900;8.208;2023-04-06T09:41:35;16.60;99.90
18456;DHT22;9357;49.900;8.208;2023-04-06T09:43:09;16.80;99.90
18456;DHT22;9357;49.900;8.208;2023-04-06T09:44:42;16.90;99.90
18456;DHT22;9357;49.900;8.208;2023-04-06T09:46:16;17.00;99.90
18456;DHT22;9357;49.900;8.208;2023-04-06T09:47:49;17.00;99.90
18456;DHT22;9357;49.900;8.208;2023-04-06T09:49:27;17.10;99.90
18456;DHT22;9357;49.900;8.208;2023-04-06T09:51:03;17.00;99.90
18456;DHT22;9357;49.900;8.208;2023-04-06T09:52:40;16.80;99.90
18456;DHT22;9357;49.900;8.208;2023-04-06T09:54:17;16.80;99.90
18456;DHT22;9357;49.900;8.208;2023-04-06T09:55:55;16.80;99.90
18456;DHT22;9357;49.900;8.208;2023-04-06T09:57:32;16.80;99.90
18456;DHT22;9357;49.900;8.208;2023-04-06T09:59:11;16.90;99.90
18456;DHT22;9357;49.900;8.208;2023-04-06T10:00:50;17.00;99.90
18456;DHT22;9357;49.900;8.208;2023-04-06T10:02:32;17.10;99.90
18456;DHT22;9357;49.900;8.208;2023-04-06T10:04:17;17.10;99.90
18456;DHT22;9357;49.900;8.208;2023-04-06T10:05:55;17.10;99.90
18456;DHT22;9357;49.900;8.208;2023-04-06T10:07:31;17.10;99.90